Time;durP1;ratioP1;P1;durP2;ratioP2;P2;SDS_P1;SDS_P2;PMS_P1;PMS_P2;Temp;Humidity;BMP_temperature;BMP_pressure;BME280_temperature;BME280_humidity;BME280_pressure;Samples;Min_cycle;Max_cycle;Signal;HPM_P1;HPM_P2
2020/10/31 00:00:12;;;;;;;7.350001;4.849999;;;;;;;10.85;100;96173.52;;;;
2020/10/31 00:01:13;;;;;;;7.05;5.05;;;;;;;10.81;100;96175.95;;;;
2020/10/31 00:02:16;;;;;;;7.05;5.05;;;;;;;10.81;100;96175.95;;;;
2020/10/31 00:03:17;;;;;;;7.05;5.05;;;;;;;10.81;100;96175.95;;;;
2020/10/31 00:04:17;;;;;;;7.05;5.05;;;;;;;10.81;100;96175.95;;;;
2020/10/31 00:05:17;;;;;;;7.05;5.05;;;;;;;10.81;100;96175.95;;;;
2020/10/31 00:06:18;;;;;;;7.05;5.05;;;;;;;10.81;100;96175.95;;;;
2020/10/31 00:07:18;;;;;;;7.05;5.05;;;;;;;10.81;100;96175.95;;;;
2020/10/31 00:08:19;;;;;;;7.05;5.05;;;;;;;10.81;100;96175.95;;;;
2020/10/31 00:09:19;;;;;;;7.05;5.05;;;;;;;10.81;100;96175.95;;;;
2020/10/31 00:10:20;;;;;;;7.05;5.05;;;;;;;10.81;100;96175.95;;;;
2020/10/31 00:11:21;;;;;;;5.6;4.45;;;;;;;10.83;100;96166.56;;;;
2020/10/31 00:12:21;;;;;;;5.6;4.45;;;;;;;10.83;100;96166.56;;;;
2020/10/31 00:13:22;;;;;;;5.6;4.45;;;;;;;10.83;100;96166.56;;;;
2020/10/31 00:14:23;;;;;;;5.6;4.45;;;;;;;10.83;100;96166.56;;;;
2020/10/31 00:15:23;;;;;;;5.6;4.45;;;;;;;10.83;100;96166.56;;;;
2020/10/31 00:16:24;;;;;;;5.6;4.45;;;;;;;10.83;100;96166.56;;;;
2020/10/31 00:17:24;;;;;;;5.6;4.45;;;;;;;10.83;100;96166.56;;;;
2020/10/31 00:18:25;;;;;;;5.6;4.45;;;;;;;10.83;100;96166.56;;;;
2020/10/31 00:19:25;;;;;;;5.6;4.45;;;;;;;10.83;100;96166.56;;;;
2020/10/31 00:20:26;;;;;;;5.6;4.45;;;;;;;10.83;100;96166.56;;;;
2020/10/31 00:21:26;;;;;;;5.6;4.45;;;;;;;10.83;100;96166.56;;;;
2020/10/31 00:22:27;;;;;;;9.149999;4.75;;;;;;;10.76;100;96168.05;;;;
2020/10/31 00:23:27;;;;;;;9.149999;4.75;;;;;;;10.76;100;96168.05;;;;
2020/10/31 00:24:28;;;;;;;9.149999;4.75;;;;;;;10.76;100;96168.05;;;;
2020/10/31 00:25:28;;;;;;;9.149999;4.75;;;;;;;10.76;100;96168.05;;;;
2020/10/31 00:26:29;;;;;;;9.149999;4.75;;;;;;;10.76;100;96168.05;;;;
2020/10/31 00:27:29;;;;;;;9.149999;4.75;;;;;;;10.76;100;96168.05;;;;
2020/10/31 00:28:33;;;;;;;9.149999;4.75;;;;;;;10.76;100;96168.05;;;;
2020/10/31 00:29:33;;;;;;;9.149999;4.75;;;;;;;10.76;100;96168.05;;;;
2020/10/31 00:30:34;;;;;;;9.149999;4.75;;;;;;;10.76;100;96168.05;;;;
2020/10/31 00:31:34;;;;;;;9.149999;4.75;;;;;;;10.76;100;96168.05;;;;
2020/10/31 00:32:35;;;;;;;5.500001;4.45;;;;;;;10.77;100;96155.8;;;;
2020/10/31 00:33:35;;;;;;;5.500001;4.45;;;;;;;10.77;100;96155.8;;;;
2020/10/31 00:34:36;;;;;;;5.500001;4.45;;;;;;;10.77;100;96155.8;;;;
2020/10/31 00:35:36;;;;;;;5.500001;4.45;;;;;;;10.77;100;96155.8;;;;
2020/10/31 00:36:37;;;;;;;5.500001;4.45;;;;;;;10.77;100;96155.8;;;;
2020/10/31 00:37:37;;;;;;;5.500001;4.45;;;;;;;10.77;100;96155.8;;;;
2020/10/31 00:38:38;;;;;;;5.500001;4.45;;;;;;;10.77;100;96155.8;;;;
2020/10/31 00:39:38;;;;;;;5.500001;4.45;;;;;;;10.77;100;96155.8;;;;
2020/10/31 00:40:39;;;;;;;5.500001;4.45;;;;;;;10.77;100;96155.8;;;;
2020/10/31 00:41:39;;;;;;;5.500001;4.45;;;;;;;10.77;100;96155.8;;;;
2020/10/31 00:42:40;;;;;;;5.500001;4.45;;;;;;;10.77;100;96155.8;;;;
2020/10/31 00:43:40;;;;;;;6.25;4.6;;;;;;;10.73;100;96159.55;;;;
2020/10/31 00:44:41;;;;;;;6.25;4.6;;;;;;;10.73;100;96159.55;;;;
2020/10/31 00:45:41;;;;;;;6.25;4.6;;;;;;;10.73;100;96159.55;;;;
2020/10/31 00:46:42;;;;;;;6.25;4.6;;;;;;;10.73;100;96159.55;;;;
2020/10/31 00:47:42;;;;;;;6.25;4.6;;;;;;;10.73;100;96159.55;;;;
2020/10/31 00:48:43;;;;;;;6.25;4.6;;;;;;;10.73;100;96159.55;;;;
2020/10/31 00:49:43;;;;;;;6.25;4.6;;;;;;;10.73;100;96159.55;;;;
2020/10/31 00:50:44;;;;;;;6.25;4.6;;;;;;;10.73;100;96159.55;;;;
2020/10/31 00:51:45;;;;;;;6.25;4.6;;;;;;;10.73;100;96159.55;;;;
2020/10/31 00:52:45;;;;;;;6.25;4.6;;;;;;;10.73;100;96159.55;;;;
2020/10/31 00:53:46;;;;;;;8.5;4.8;;;;;;;10.75;100;96163.29;;;;
2020/10/31 00:54:46;;;;;;;8.5;4.8;;;;;;;10.75;100;96163.29;;;;
2020/10/31 00:55:47;;;;;;;8.5;4.8;;;;;;;10.75;100;96163.29;;;;
2020/10/31 00:56:47;;;;;;;8.5;4.8;;;;;;;10.75;100;96163.29;;;;
2020/10/31 00:57:48;;;;;;;8.5;4.8;;;;;;;10.75;100;96163.29;;;;
2020/10/31 00:58:48;;;;;;;8.5;4.8;;;;;;;10.75;100;96163.29;;;;
2020/10/31 00:59:49;;;;;;;8.5;4.8;;;;;;;10.75;100;96163.29;;;;
2020/10/31 01:00:49;;;;;;;8.5;4.8;;;;;;;10.75;100;96163.29;;;;
2020/10/31 01:01:50;;;;;;;8.5;4.8;;;;;;;10.75;100;96163.29;;;;
2020/10/31 01:02:50;;;;;;;8.5;4.8;;;;;;;10.75;100;96163.29;;;;
2020/10/31 01:03:51;;;;;;;8.5;4.8;;;;;;;10.75;100;96163.29;;;;
2020/10/31 01:04:51;;;;;;;8.1;4.799999;;;;;;;10.71;100;96166.94;;;;
2020/10/31 01:05:51;;;;;;;8.1;4.799999;;;;;;;10.71;100;96166.94;;;;
2020/10/31 01:06:53;;;;;;;8.1;4.799999;;;;;;;10.71;100;96166.94;;;;
2020/10/31 01:07:53;;;;;;;8.1;4.799999;;;;;;;10.71;100;96166.94;;;;
2020/10/31 01:08:54;;;;;;;8.1;4.799999;;;;;;;10.71;100;96166.94;;;;
2020/10/31 01:09:54;;;;;;;8.1;4.799999;;;;;;;10.71;100;96166.94;;;;
2020/10/31 01:10:55;;;;;;;8.1;4.799999;;;;;;;10.71;100;96166.94;;;;
2020/10/31 01:11:56;;;;;;;8.1;4.799999;;;;;;;10.71;100;96166.94;;;;
2020/10/31 01:12:56;;;;;;;8.1;4.799999;;;;;;;10.71;100;96166.94;;;;
2020/10/31 01:13:57;;;;;;;8.1;4.799999;;;;;;;10.71;100;96166.94;;;;
2020/10/31 01:14:57;;;;;;;8.1;4.799999;;;;;;;10.71;100;96166.94;;;;
2020/10/31 01:15:58;;;;;;;5.8;4.45;;;;;;;10.72;100;96150.61;;;;
2020/10/31 01:16:58;;;;;;;5.8;4.45;;;;;;;10.72;100;96150.61;;;;
2020/10/31 01:17:59;;;;;;;5.8;4.45;;;;;;;10.72;100;96150.61;;;;
2020/10/31 01:18:59;;;;;;;5.8;4.45;;;;;;;10.72;100;96150.61;;;;
2020/10/31 01:19:59;;;;;;;5.8;4.45;;;;;;;10.72;100;96150.61;;;;
2020/10/31 01:21:00;;;;;;;5.8;4.45;;;;;;;10.72;100;96150.61;;;;
2020/10/31 01:22:00;;;;;;;5.8;4.45;;;;;;;10.72;100;96150.61;;;;
2020/10/31 01:23:01;;;;;;;5.8;4.45;;;;;;;10.72;100;96150.61;;;;
2020/10/31 01:24:01;;;;;;;5.8;4.45;;;;;;;10.72;100;96150.61;;;;
2020/10/31 01:25:03;;;;;;;5.8;4.45;;;;;;;10.72;100;96150.61;;;;
2020/10/31 01:26:03;;;;;;;7.1;4.600001;;;;;;;10.66;100;96151.08;;;;
2020/10/31 01:27:04;;;;;;;7.1;4.600001;;;;;;;10.66;100;96151.08;;;;
2020/10/31 01:28:04;;;;;;;7.1;4.600001;;;;;;;10.66;100;96151.08;;;;
2020/10/31 01:29:05;;;;;;;7.1;4.600001;;;;;;;10.66;100;96151.08;;;;
2020/10/31 01:30:05;;;;;;;7.1;4.600001;;;;;;;10.66;100;96151.08;;;;
2020/10/31 01:31:06;;;;;;;7.1;4.600001;;;;;;;10.66;100;96151.08;;;;
2020/10/31 01:32:07;;;;;;;7.1;4.600001;;;;;;;10.66;100;96151.08;;;;
2020/10/31 01:33:07;;;;;;;7.1;4.600001;;;;;;;10.66;100;96151.08;;;;
2020/10/31 01:34:08;;;;;;;7.1;4.600001;;;;;;;10.66;100;96151.08;;;;
2020/10/31 01:35:08;;;;;;;7.1;4.600001;;;;;;;10.66;100;96151.08;;;;
2020/10/31 01:36:10;;;;;;;7.1;4.600001;;;;;;;10.66;100;96151.08;;;;
2020/10/31 01:37:10;;;;;;;5.150001;4.25;;;;;;;10.66;100;96151.08;;;;
2020/10/31 01:38:11;;;;;;;5.150001;4.25;;;;;;;10.66;100;96151.08;;;;
2020/10/31 01:39:12;;;;;;;5.150001;4.25;;;;;;;10.66;100;96151.08;;;;
2020/10/31 01:40:12;;;;;;;5.150001;4.25;;;;;;;10.66;100;96151.08;;;;
2020/10/31 01:41:13;;;;;;;5.150001;4.25;;;;;;;10.66;100;96151.08;;;;
2020/10/31 01:42:13;;;;;;;5.150001;4.25;;;;;;;10.66;100;96151.08;;;;
2020/10/31 01:43:14;;;;;;;5.150001;4.25;;;;;;;10.66;100;96151.08;;;;
2020/10/31 01:44:14;;;;;;;5.150001;4.25;;;;;;;10.66;100;96151.08;;;;
2020/10/31 01:45:15;;;;;;;5.150001;4.25;;;;;;;10.66;100;96151.08;;;;
2020/10/31 01:46:15;;;;;;;5.150001;4.25;;;;;;;10.66;100;96151.08;;;;
2020/10/31 01:47:16;;;;;;;6.5;4.699999;;;;;;;10.6;100;96145.17;;;;
2020/10/31 01:48:17;;;;;;;6.5;4.699999;;;;;;;10.6;100;96145.17;;;;
2020/10/31 01:49:18;;;;;;;6.5;4.699999;;;;;;;10.6;100;96145.17;;;;
2020/10/31 01:50:18;;;;;;;6.5;4.699999;;;;;;;10.6;100;96145.17;;;;
2020/10/31 01:51:19;;;;;;;6.5;4.699999;;;;;;;10.6;100;96145.17;;;;
2020/10/31 01:52:19;;;;;;;6.5;4.699999;;;;;;;10.6;100;96145.17;;;;
2020/10/31 01:53:20;;;;;;;6.5;4.699999;;;;;;;10.6;100;96145.17;;;;
2020/10/31 01:54:20;;;;;;;6.5;4.699999;;;;;;;10.6;100;96145.17;;;;
2020/10/31 01:55:21;;;;;;;6.5;4.699999;;;;;;;10.6;100;96145.17;;;;
2020/10/31 01:56:22;;;;;;;6.5;4.699999;;;;;;;10.6;100;96145.17;;;;
2020/10/31 01:57:22;;;;;;;6.5;4.699999;;;;;;;10.6;100;96145.17;;;;
2020/10/31 01:58:23;;;;;;;7;4.65;;;;;;;10.59;100;96135.85;;;;
2020/10/31 01:59:23;;;;;;;7;4.65;;;;;;;10.59;100;96135.85;;;;
2020/10/31 02:00:24;;;;;;;7;4.65;;;;;;;10.59;100;96135.85;;;;
2020/10/31 02:01:24;;;;;;;7;4.65;;;;;;;10.59;100;96135.85;;;;
2020/10/31 02:02:25;;;;;;;7;4.65;;;;;;;10.59;100;96135.85;;;;
2020/10/31 02:03:26;;;;;;;7;4.65;;;;;;;10.59;100;96135.85;;;;
2020/10/31 02:04:26;;;;;;;7;4.65;;;;;;;10.59;100;96135.85;;;;
2020/10/31 02:05:27;;;;;;;7;4.65;;;;;;;10.59;100;96135.85;;;;
2020/10/31 02:06:27;;;;;;;7;4.65;;;;;;;10.59;100;96135.85;;;;
2020/10/31 02:07:28;;;;;;;7;4.65;;;;;;;10.59;100;96135.85;;;;
2020/10/31 02:08:28;;;;;;;5.900001;4.65;;;;;;;10.52;100;96129.24;;;;
2020/10/31 02:09:29;;;;;;;5.900001;4.65;;;;;;;10.52;100;96129.24;;;;
2020/10/31 02:10:29;;;;;;;5.900001;4.65;;;;;;;10.52;100;96129.24;;;;
2020/10/31 02:11:30;;;;;;;5.900001;4.65;;;;;;;10.52;100;96129.24;;;;
2020/10/31 02:12:31;;;;;;;5.900001;4.65;;;;;;;10.52;100;96129.24;;;;
2020/10/31 02:13:32;;;;;;;5.900001;4.65;;;;;;;10.52;100;96129.24;;;;
2020/10/31 02:14:32;;;;;;;5.900001;4.65;;;;;;;10.52;100;96129.24;;;;
2020/10/31 02:15:34;;;;;;;5.900001;4.65;;;;;;;10.52;100;96129.24;;;;
2020/10/31 02:16:34;;;;;;;5.900001;4.65;;;;;;;10.52;100;96129.24;;;;
2020/10/31 02:17:35;;;;;;;5.900001;4.65;;;;;;;10.52;100;96129.24;;;;
2020/10/31 02:18:38;;;;;;;5.900001;4.65;;;;;;;10.52;100;96129.24;;;;
2020/10/31 02:19:38;;;;;;;5;4.5;;;;;;;10.48;100;96132.47;;;;
2020/10/31 02:20:39;;;;;;;5;4.5;;;;;;;10.48;100;96132.47;;;;
2020/10/31 02:21:39;;;;;;;5;4.5;;;;;;;10.48;100;96132.47;;;;
2020/10/31 02:22:44;;;;;;;5;4.5;;;;;;;10.48;100;96132.47;;;;
2020/10/31 02:23:45;;;;;;;5;4.5;;;;;;;10.48;100;96132.47;;;;
2020/10/31 02:24:45;;;;;;;5;4.5;;;;;;;10.48;100;96132.47;;;;
2020/10/31 02:25:46;;;;;;;5;4.5;;;;;;;10.48;100;96132.47;;;;
2020/10/31 02:26:46;;;;;;;5;4.5;;;;;;;10.48;100;96132.47;;;;
2020/10/31 02:27:47;;;;;;;5;4.5;;;;;;;10.48;100;96132.47;;;;
2020/10/31 02:28:47;;;;;;;5;4.5;;;;;;;10.48;100;96132.47;;;;
2020/10/31 02:29:48;;;;;;;7.25;4.5;;;;;;;10.38;100;96130.72;;;;
2020/10/31 02:30:48;;;;;;;7.25;4.5;;;;;;;10.38;100;96130.72;;;;
2020/10/31 02:31:49;;;;;;;7.25;4.5;;;;;;;10.38;100;96130.72;;;;
2020/10/31 02:32:49;;;;;;;7.25;4.5;;;;;;;10.38;100;96130.72;;;;
2020/10/31 02:33:50;;;;;;;7.25;4.5;;;;;;;10.38;100;96130.72;;;;
2020/10/31 02:34:50;;;;;;;7.25;4.5;;;;;;;10.38;100;96130.72;;;;
2020/10/31 02:35:51;;;;;;;7.25;4.5;;;;;;;10.38;100;96130.72;;;;
2020/10/31 02:36:51;;;;;;;7.25;4.5;;;;;;;10.38;100;96130.72;;;;
2020/10/31 02:37:52;;;;;;;7.25;4.5;;;;;;;10.38;100;96130.72;;;;
2020/10/31 02:38:52;;;;;;;7.25;4.5;;;;;;;10.38;100;96130.72;;;;
2020/10/31 02:39:53;;;;;;;7.25;4.5;;;;;;;10.38;100;96130.72;;;;
2020/10/31 02:40:53;;;;;;;5.85;4.549999;;;;;;;10.33;100;96138.12;;;;
2020/10/31 02:41:54;;;;;;;5.85;4.549999;;;;;;;10.33;100;96138.12;;;;
2020/10/31 02:42:54;;;;;;;5.85;4.549999;;;;;;;10.33;100;96138.12;;;;
2020/10/31 02:43:55;;;;;;;5.85;4.549999;;;;;;;10.33;100;96138.12;;;;
2020/10/31 02:44:55;;;;;;;5.85;4.549999;;;;;;;10.33;100;96138.12;;;;
2020/10/31 02:45:56;;;;;;;5.85;4.549999;;;;;;;10.33;100;96138.12;;;;
2020/10/31 02:46:56;;;;;;;5.85;4.549999;;;;;;;10.33;100;96138.12;;;;
2020/10/31 02:47:57;;;;;;;5.85;4.549999;;;;;;;10.33;100;96138.12;;;;
2020/10/31 02:48:57;;;;;;;5.85;4.549999;;;;;;;10.33;100;96138.12;;;;
2020/10/31 02:49:58;;;;;;;5.85;4.549999;;;;;;;10.33;100;96138.12;;;;
2020/10/31 02:50:59;;;;;;;5.85;4.549999;;;;;;;10.33;100;96138.12;;;;
2020/10/31 02:51:59;;;;;;;6.299999;4.5;;;;;;;10.24;100;96143.03;;;;
2020/10/31 02:53:00;;;;;;;6.299999;4.5;;;;;;;10.24;100;96143.03;;;;
2020/10/31 02:54:06;;;;;;;6.299999;4.5;;;;;;;10.24;100;96143.03;;;;
2020/10/31 02:55:07;;;;;;;6.299999;4.5;;;;;;;10.24;100;96143.03;;;;
2020/10/31 02:56:07;;;;;;;6.299999;4.5;;;;;;;10.24;100;96143.03;;;;
2020/10/31 02:57:08;;;;;;;6.299999;4.5;;;;;;;10.24;100;96143.03;;;;
2020/10/31 02:58:09;;;;;;;6.299999;4.5;;;;;;;10.24;100;96143.03;;;;
2020/10/31 02:59:09;;;;;;;6.299999;4.5;;;;;;;10.24;100;96143.03;;;;
2020/10/31 03:00:10;;;;;;;6.299999;4.5;;;;;;;10.24;100;96143.03;;;;
2020/10/31 03:01:10;;;;;;;6.299999;4.5;;;;;;;10.24;100;96143.03;;;;
2020/10/31 03:02:11;;;;;;;4.9;4.3;;;;;;;10.26;100;96126.53;;;;
2020/10/31 03:03:11;;;;;;;4.9;4.3;;;;;;;10.26;100;96126.53;;;;
2020/10/31 03:04:12;;;;;;;4.9;4.3;;;;;;;10.26;100;96126.53;;;;
2020/10/31 03:05:12;;;;;;;4.9;4.3;;;;;;;10.26;100;96126.53;;;;
2020/10/31 03:06:13;;;;;;;4.9;4.3;;;;;;;10.26;100;96126.53;;;;
2020/10/31 03:07:13;;;;;;;4.9;4.3;;;;;;;10.26;100;96126.53;;;;
2020/10/31 03:08:14;;;;;;;4.9;4.3;;;;;;;10.26;100;96126.53;;;;
2020/10/31 03:09:14;;;;;;;4.9;4.3;;;;;;;10.26;100;96126.53;;;;
2020/10/31 03:10:15;;;;;;;4.9;4.3;;;;;;;10.26;100;96126.53;;;;
2020/10/31 03:11:15;;;;;;;4.9;4.3;;;;;;;10.26;100;96126.53;;;;
2020/10/31 03:12:16;;;;;;;4.9;4.3;;;;;;;10.26;100;96126.53;;;;
2020/10/31 03:13:16;;;;;;;7.850001;4.699999;;;;;;;10.26;100;96113.12;;;;
2020/10/31 03:14:17;;;;;;;7.850001;4.699999;;;;;;;10.26;100;96113.12;;;;
2020/10/31 03:15:18;;;;;;;7.850001;4.699999;;;;;;;10.26;100;96113.12;;;;
2020/10/31 03:16:18;;;;;;;7.850001;4.699999;;;;;;;10.26;100;96113.12;;;;
2020/10/31 03:17:19;;;;;;;7.850001;4.699999;;;;;;;10.26;100;96113.12;;;;
2020/10/31 03:18:19;;;;;;;7.850001;4.699999;;;;;;;10.26;100;96113.12;;;;
2020/10/31 03:19:20;;;;;;;7.850001;4.699999;;;;;;;10.26;100;96113.12;;;;
2020/10/31 03:20:20;;;;;;;7.850001;4.699999;;;;;;;10.26;100;96113.12;;;;
2020/10/31 03:21:21;;;;;;;7.850001;4.699999;;;;;;;10.26;100;96113.12;;;;
2020/10/31 03:22:21;;;;;;;7.850001;4.699999;;;;;;;10.26;100;96113.12;;;;
2020/10/31 03:23:22;;;;;;;5.95;4.5;;;;;;;10.23;100;96110.86;;;;
2020/10/31 03:24:22;;;;;;;5.95;4.5;;;;;;;10.23;100;96110.86;;;;
2020/10/31 03:25:23;;;;;;;5.95;4.5;;;;;;;10.23;100;96110.86;;;;
2020/10/31 03:26:23;;;;;;;5.95;4.5;;;;;;;10.23;100;96110.86;;;;
2020/10/31 03:27:24;;;;;;;5.95;4.5;;;;;;;10.23;100;96110.86;;;;
2020/10/31 03:28:24;;;;;;;5.95;4.5;;;;;;;10.23;100;96110.86;;;;
2020/10/31 03:29:25;;;;;;;5.95;4.5;;;;;;;10.23;100;96110.86;;;;
2020/10/31 03:30:25;;;;;;;5.95;4.5;;;;;;;10.23;100;96110.86;;;;
2020/10/31 03:31:26;;;;;;;5.95;4.5;;;;;;;10.23;100;96110.86;;;;
2020/10/31 03:32:26;;;;;;;5.95;4.5;;;;;;;10.23;100;96110.86;;;;
2020/10/31 03:33:27;;;;;;;5.95;4.5;;;;;;;10.23;100;96110.86;;;;
2020/10/31 03:34:27;;;;;;;6.5;4.400001;;;;;;;10.19;100;96104.65;;;;
2020/10/31 03:35:28;;;;;;;6.5;4.400001;;;;;;;10.19;100;96104.65;;;;
2020/10/31 03:36:28;;;;;;;6.5;4.400001;;;;;;;10.19;100;96104.65;;;;
2020/10/31 03:37:28;;;;;;;6.5;4.400001;;;;;;;10.19;100;96104.65;;;;
2020/10/31 03:38:29;;;;;;;6.5;4.400001;;;;;;;10.19;100;96104.65;;;;
2020/10/31 03:39:29;;;;;;;6.5;4.400001;;;;;;;10.19;100;96104.65;;;;
2020/10/31 03:40:30;;;;;;;6.5;4.400001;;;;;;;10.19;100;96104.65;;;;
2020/10/31 03:41:31;;;;;;;6.5;4.400001;;;;;;;10.19;100;96104.65;;;;
2020/10/31 03:42:31;;;;;;;6.5;4.400001;;;;;;;10.19;100;96104.65;;;;
2020/10/31 03:43:32;;;;;;;6.5;4.400001;;;;;;;10.19;100;96104.65;;;;
2020/10/31 03:44:32;;;;;;;6.1;4.55;;;;;;;10.02;100;96114.23;;;;
2020/10/31 03:45:33;;;;;;;6.1;4.55;;;;;;;10.02;100;96114.23;;;;
2020/10/31 03:46:33;;;;;;;6.1;4.55;;;;;;;10.02;100;96114.23;;;;
2020/10/31 03:47:34;;;;;;;6.1;4.55;;;;;;;10.02;100;96114.23;;;;
2020/10/31 03:48:34;;;;;;;6.1;4.55;;;;;;;10.02;100;96114.23;;;;
2020/10/31 03:49:35;;;;;;;6.1;4.55;;;;;;;10.02;100;96114.23;;;;
2020/10/31 03:50:35;;;;;;;6.1;4.55;;;;;;;10.02;100;96114.23;;;;
2020/10/31 03:51:36;;;;;;;6.1;4.55;;;;;;;10.02;100;96114.23;;;;
2020/10/31 03:52:36;;;;;;;6.1;4.55;;;;;;;10.02;100;96114.23;;;;
2020/10/31 03:53:37;;;;;;;6.1;4.55;;;;;;;10.02;100;96114.23;;;;
2020/10/31 03:54:38;;;;;;;6.1;4.55;;;;;;;10.02;100;96114.23;;;;
2020/10/31 03:55:38;;;;;;;5.8;4.65;;;;;;;9.87;100;96123.5;;;;
2020/10/31 03:56:39;;;;;;;5.8;4.65;;;;;;;9.87;100;96123.5;;;;
2020/10/31 03:57:39;;;;;;;5.8;4.65;;;;;;;9.87;100;96123.5;;;;
2020/10/31 03:58:40;;;;;;;5.8;4.65;;;;;;;9.87;100;96123.5;;;;
2020/10/31 03:59:40;;;;;;;5.8;4.65;;;;;;;9.87;100;96123.5;;;;
2020/10/31 04:00:46;;;;;;;5.8;4.65;;;;;;;9.87;100;96123.5;;;;
2020/10/31 04:01:47;;;;;;;5.8;4.65;;;;;;;9.87;100;96123.5;;;;
2020/10/31 04:02:47;;;;;;;5.8;4.65;;;;;;;9.87;100;96123.5;;;;
2020/10/31 04:03:48;;;;;;;5.8;4.65;;;;;;;9.87;100;96123.5;;;;
2020/10/31 04:04:48;;;;;;;5.8;4.65;;;;;;;9.87;100;96123.5;;;;
2020/10/31 04:05:49;;;;;;;6.45;4.849999;;;;;;;9.72;100;96125.08;;;;
2020/10/31 04:06:49;;;;;;;6.45;4.849999;;;;;;;9.72;100;96125.08;;;;
2020/10/31 04:07:50;;;;;;;6.45;4.849999;;;;;;;9.72;100;96125.08;;;;
2020/10/31 04:08:50;;;;;;;6.45;4.849999;;;;;;;9.72;100;96125.08;;;;
2020/10/31 04:09:51;;;;;;;6.45;4.849999;;;;;;;9.72;100;96125.08;;;;
2020/10/31 04:10:51;;;;;;;6.45;4.849999;;;;;;;9.72;100;96125.08;;;;
2020/10/31 04:11:51;;;;;;;6.45;4.849999;;;;;;;9.72;100;96125.08;;;;
2020/10/31 04:12:52;;;;;;;6.45;4.849999;;;;;;;9.72;100;96125.08;;;;
2020/10/31 04:13:52;;;;;;;6.45;4.849999;;;;;;;9.72;100;96125.08;;;;
2020/10/31 04:14:53;;;;;;;6.45;4.849999;;;;;;;9.72;100;96125.08;;;;
2020/10/31 04:15:53;;;;;;;6.45;4.849999;;;;;;;9.72;100;96125.08;;;;
2020/10/31 04:16:54;;;;;;;8.65;5.1;;;;;;;9.57;100;96135.8;;;;
2020/10/31 04:17:54;;;;;;;8.65;5.1;;;;;;;9.57;100;96135.8;;;;
2020/10/31 04:18:55;;;;;;;8.65;5.1;;;;;;;9.57;100;96135.8;;;;
2020/10/31 04:19:55;;;;;;;8.65;5.1;;;;;;;9.57;100;96135.8;;;;
2020/10/31 04:20:56;;;;;;;8.65;5.1;;;;;;;9.57;100;96135.8;;;;
2020/10/31 04:21:57;;;;;;;8.65;5.1;;;;;;;9.57;100;96135.8;;;;
2020/10/31 04:22:57;;;;;;;8.65;5.1;;;;;;;9.57;100;96135.8;;;;
2020/10/31 04:23:58;;;;;;;8.65;5.1;;;;;;;9.57;100;96135.8;;;;
2020/10/31 04:24:59;;;;;;;8.65;5.1;;;;;;;9.57;100;96135.8;;;;
2020/10/31 04:26:00;;;;;;;8.65;5.1;;;;;;;9.57;100;96135.8;;;;
2020/10/31 04:27:00;;;;;;;7.500001;5.05;;;;;;;9.54;100;96125.41;;;;
2020/10/31 04:28:01;;;;;;;7.500001;5.05;;;;;;;9.54;100;96125.41;;;;
2020/10/31 04:29:01;;;;;;;7.500001;5.05;;;;;;;9.54;100;96125.41;;;;
2020/10/31 04:30:02;;;;;;;7.500001;5.05;;;;;;;9.54;100;96125.41;;;;
2020/10/31 04:31:03;;;;;;;7.500001;5.05;;;;;;;9.54;100;96125.41;;;;
2020/10/31 04:32:04;;;;;;;7.500001;5.05;;;;;;;9.54;100;96125.41;;;;
2020/10/31 04:33:04;;;;;;;7.500001;5.05;;;;;;;9.54;100;96125.41;;;;
2020/10/31 04:34:05;;;;;;;7.500001;5.05;;;;;;;9.54;100;96125.41;;;;
2020/10/31 04:35:05;;;;;;;7.500001;5.05;;;;;;;9.54;100;96125.41;;;;
2020/10/31 04:36:06;;;;;;;7.500001;5.05;;;;;;;9.54;100;96125.41;;;;
2020/10/31 04:37:06;;;;;;;7.500001;5.05;;;;;;;9.54;100;96125.41;;;;
2020/10/31 04:38:07;;;;;;;6.45;5.15;;;;;;;9.6;100;96113.79;;;;
2020/10/31 04:39:07;;;;;;;6.45;5.15;;;;;;;9.6;100;96113.79;;;;
2020/10/31 04:40:08;;;;;;;6.45;5.15;;;;;;;9.6;100;96113.79;;;;
2020/10/31 04:41:09;;;;;;;6.45;5.15;;;;;;;9.6;100;96113.79;;;;
2020/10/31 04:42:09;;;;;;;6.45;5.15;;;;;;;9.6;100;96113.79;;;;
2020/10/31 04:43:10;;;;;;;6.45;5.15;;;;;;;9.6;100;96113.79;;;;
2020/10/31 04:44:10;;;;;;;6.45;5.15;;;;;;;9.6;100;96113.79;;;;
2020/10/31 04:45:12;;;;;;;6.45;5.15;;;;;;;9.6;100;96113.79;;;;
2020/10/31 04:46:13;;;;;;;6.45;5.15;;;;;;;9.6;100;96113.79;;;;
2020/10/31 04:47:14;;;;;;;6.45;5.15;;;;;;;9.6;100;96113.79;;;;
2020/10/31 04:48:15;;;;;;;6.45;5.15;;;;;;;9.6;100;96113.79;;;;
2020/10/31 04:49:15;;;;;;;6.95;5.050001;;;;;;;9.61;100;96112.33;;;;
2020/10/31 04:50:16;;;;;;;6.95;5.050001;;;;;;;9.61;100;96112.33;;;;
2020/10/31 04:51:16;;;;;;;6.95;5.050001;;;;;;;9.61;100;96112.33;;;;
2020/10/31 04:52:17;;;;;;;6.95;5.050001;;;;;;;9.61;100;96112.33;;;;
2020/10/31 04:53:17;;;;;;;6.95;5.050001;;;;;;;9.61;100;96112.33;;;;
2020/10/31 04:54:18;;;;;;;6.95;5.050001;;;;;;;9.61;100;96112.33;;;;
2020/10/31 04:55:18;;;;;;;6.95;5.050001;;;;;;;9.61;100;96112.33;;;;
2020/10/31 04:56:19;;;;;;;6.95;5.050001;;;;;;;9.61;100;96112.33;;;;
2020/10/31 04:57:20;;;;;;;6.95;5.050001;;;;;;;9.61;100;96112.33;;;;
2020/10/31 04:58:21;;;;;;;6.95;5.050001;;;;;;;9.61;100;96112.33;;;;
2020/10/31 04:59:22;;;;;;;6.15;5.5;;;;;;;9.58;100;96096.58;;;;
2020/10/31 05:00:22;;;;;;;6.15;5.5;;;;;;;9.58;100;96096.58;;;;
2020/10/31 05:01:23;;;;;;;6.15;5.5;;;;;;;9.58;100;96096.58;;;;
2020/10/31 05:02:23;;;;;;;6.15;5.5;;;;;;;9.58;100;96096.58;;;;
2020/10/31 05:03:24;;;;;;;6.15;5.5;;;;;;;9.58;100;96096.58;;;;
2020/10/31 05:04:24;;;;;;;6.15;5.5;;;;;;;9.58;100;96096.58;;;;
2020/10/31 05:05:25;;;;;;;6.15;5.5;;;;;;;9.58;100;96096.58;;;;
2020/10/31 05:06:27;;;;;;;6.15;5.5;;;;;;;9.58;100;96096.58;;;;
2020/10/31 05:07:28;;;;;;;6.15;5.5;;;;;;;9.58;100;96096.58;;;;
2020/10/31 05:08:30;;;;;;;6.15;5.5;;;;;;;9.58;100;96096.58;;;;
2020/10/31 05:09:30;;;;;;;6.15;5.5;;;;;;;9.58;100;96096.58;;;;
2020/10/31 05:10:31;;;;;;;10.1;5.4;;;;;;;9.52;100;96092.85;;;;
2020/10/31 05:11:31;;;;;;;10.1;5.4;;;;;;;9.52;100;96092.85;;;;
2020/10/31 05:12:32;;;;;;;10.1;5.4;;;;;;;9.52;100;96092.85;;;;
2020/10/31 05:13:32;;;;;;;10.1;5.4;;;;;;;9.52;100;96092.85;;;;
2020/10/31 05:14:33;;;;;;;10.1;5.4;;;;;;;9.52;100;96092.85;;;;
2020/10/31 05:15:33;;;;;;;10.1;5.4;;;;;;;9.52;100;96092.85;;;;
2020/10/31 05:16:49;;;;;;;10.1;5.4;;;;;;;9.52;100;96092.85;;;;
2020/10/31 05:17:52;;;;;;;10.1;5.4;;;;;;;9.52;100;96092.85;;;;
2020/10/31 05:18:54;;;;;;;10.1;5.4;;;;;;;9.52;100;96092.85;;;;
2020/10/31 05:20:06;;;;;;;10.1;5.4;;;;;;;9.52;100;96092.85;;;;
2020/10/31 05:21:07;;;;;;;6.4;4.950001;;;;;;;9.45;100;96082.18;;;;
2020/10/31 05:22:39;;;;;;;6.4;4.950001;;;;;;;9.45;100;96082.18;;;;
2020/10/31 05:23:40;;;;;;;6.4;4.950001;;;;;;;9.45;100;96082.18;;;;
2020/10/31 05:24:40;;;;;;;6.4;4.950001;;;;;;;9.45;100;96082.18;;;;
2020/10/31 05:25:40;;;;;;;6.4;4.950001;;;;;;;9.45;100;96082.18;;;;
2020/10/31 05:26:42;;;;;;;6.4;4.950001;;;;;;;9.45;100;96082.18;;;;
2020/10/31 05:27:44;;;;;;;6.4;4.950001;;;;;;;9.45;100;96082.18;;;;
2020/10/31 05:28:45;;;;;;;6.4;4.950001;;;;;;;9.45;100;96082.18;;;;
2020/10/31 05:29:51;;;;;;;6.4;4.950001;;;;;;;9.45;100;96082.18;;;;
2020/10/31 05:30:52;;;;;;;6.4;4.950001;;;;;;;9.45;100;96082.18;;;;
2020/10/31 05:31:52;;;;;;;6.25;5.25;;;;;;;9.18;100;96081.89;;;;
2020/10/31 05:32:54;;;;;;;6.25;5.25;;;;;;;9.18;100;96081.89;;;;
2020/10/31 05:33:55;;;;;;;6.25;5.25;;;;;;;9.18;100;96081.89;;;;
2020/10/31 05:34:57;;;;;;;6.25;5.25;;;;;;;9.18;100;96081.89;;;;
2020/10/31 05:35:59;;;;;;;6.25;5.25;;;;;;;9.18;100;96081.89;;;;
2020/10/31 05:36:59;;;;;;;6.25;5.25;;;;;;;9.18;100;96081.89;;;;
2020/10/31 05:38:01;;;;;;;6.25;5.25;;;;;;;9.18;100;96081.89;;;;
2020/10/31 05:39:02;;;;;;;6.25;5.25;;;;;;;9.18;100;96081.89;;;;
2020/10/31 05:40:02;;;;;;;6.25;5.25;;;;;;;9.18;100;96081.89;;;;
2020/10/31 05:41:03;;;;;;;6.25;5.25;;;;;;;9.18;100;96081.89;;;;
2020/10/31 05:42:21;;;;;;;7.750001;5.65;;;;;;;8.83;100;96070.09;;;;
2020/10/31 05:43:28;;;;;;;7.750001;5.65;;;;;;;8.83;100;96070.09;;;;
2020/10/31 05:44:29;;;;;;;7.750001;5.65;;;;;;;8.83;100;96070.09;;;;
2020/10/31 05:45:35;;;;;;;7.750001;5.65;;;;;;;8.83;100;96070.09;;;;
2020/10/31 05:46:43;;;;;;;7.750001;5.65;;;;;;;8.83;100;96070.09;;;;
2020/10/31 05:47:44;;;;;;;7.750001;5.65;;;;;;;8.83;100;96070.09;;;;
2020/10/31 05:48:45;;;;;;;7.750001;5.65;;;;;;;8.83;100;96070.09;;;;
2020/10/31 05:49:46;;;;;;;7.750001;5.65;;;;;;;8.83;100;96070.09;;;;
2020/10/31 05:50:47;;;;;;;7.750001;5.65;;;;;;;8.83;100;96070.09;;;;
2020/10/31 05:51:48;;;;;;;7.750001;5.65;;;;;;;8.83;100;96070.09;;;;
2020/10/31 05:52:48;;;;;;;8;5.349999;;;;;;;8.41;100;96071.25;;;;
2020/10/31 05:53:49;;;;;;;8;5.349999;;;;;;;8.41;100;96071.25;;;;
2020/10/31 05:54:49;;;;;;;8;5.349999;;;;;;;8.41;100;96071.25;;;;
2020/10/31 05:55:50;;;;;;;8;5.349999;;;;;;;8.41;100;96071.25;;;;
2020/10/31 05:56:50;;;;;;;8;5.349999;;;;;;;8.41;100;96071.25;;;;
2020/10/31 05:57:50;;;;;;;8;5.349999;;;;;;;8.41;100;96071.25;;;;
2020/10/31 05:58:51;;;;;;;8;5.349999;;;;;;;8.41;100;96071.25;;;;
2020/10/31 06:00:18;;;;;;;8;5.349999;;;;;;;8.41;100;96071.25;;;;
2020/10/31 06:01:20;;;;;;;8;5.349999;;;;;;;8.41;100;96071.25;;;;
2020/10/31 06:02:21;;;;;;;8;5.349999;;;;;;;8.41;100;96071.25;;;;
2020/10/31 06:03:22;;;;;;;7.600001;5.35;;;;;;;7.99;100;96080.38;;;;
2020/10/31 06:04:22;;;;;;;7.600001;5.35;;;;;;;7.99;100;96080.38;;;;
2020/10/31 06:05:31;;;;;;;7.600001;5.35;;;;;;;7.99;100;96080.38;;;;
2020/10/31 06:06:32;;;;;;;7.600001;5.35;;;;;;;7.99;100;96080.38;;;;